Portada
METAR-TAF:

METAR-TAF

Aeroports :

Illa Norfolk, Austràlia

latitud: 29-02S, longitud: 167-56E, altitud: 113 m

Observació

L'informe es va fer fa 34 minuts, a les 02:30 UTC
Vent 14 kt del Nord-Est
Temperatura 26°C
Humitat 61%
Pressió 1014 hPa
Visibilitat 10 km o més
Núvols disperses a una alçada de 2100 ft
Cel cobert a una alçada de 7300 ft

METAR: YSNF 270230Z AUTO 05014KT 9999 // SCT021 OVC073 26/18 Q1014

Hora: 14:04 (03:04 UTC)

Pronòstic

L'informe es va fer fa 3 hores i 46 minuts, a les 23:18 UTC
Pronòstic vàlid del 27 a les 00 UTC al 28 a les 00 UTC
Vent 14 kt del Nord-Est
Visibilitat 10 km o més
Núvols disperses a una alçada de 2000 ft
Cel ennuvolat a una alçada de 4000 ft

TAF: YSNF 262318Z 2700/2800 05014KT 9999 SCT020 BKN040

Observacions i pronòstics meteorològics de més de 4000 aeroports (METAR i TAF).

Les estacions disponibles són els punts grocs i vermells al mapa.

Posi el ratolí al punt desitjat per veure el nom de l'estació.

Feu clic per veure les observacions i els pronòstics meteorològics.

Per canviar el mapa: feu clic els botons verds amb una creu de color negre per apropar; al botó verd amb un guió per allunyar la imatge; o en les fletxes verdes per a mapes adjacents.


METAR-TAF: